Skip Navigation Linkwww.weather.gov 
NOAA logo - Select to go to the NOAA homepage National Weather Service
 Headquarters Office   NWS logo
Internet Weather Source
 
   
 

On or about April 4th, 2012, request for METARS through this service will be redirected to:

http://www.aviationweather.gov/adds/metars/

This redirection is part of a larger effort to reduce duplication of effort within the National Weather Service. The website above offers the same functionality. It also needs to be noted that the NWS Aviation Weather Center operated website above is the only FAA approved source of aviation weather overe the Internet to be used for pilot briefings. Please update bookmarks, links, etc..

RJNH

The most recent METAR observation from RJNH in our system was generated at the source at:

2014/04/23 19:04 UTC

The observation is:


2011/10/06 06:32 RJNH 060632Z 29015G25KT 9999 FEW020 25/13 Q1004 RMK 1CU020 A2967


US Dept of Commerce
National Oceanic and Atmospheric Administration
National Weather Service
Office of the Chief Information Officer (OCIO13)
1325 East West Highway
Silver Spring, MD 20910
Page last modified: Feb 28, 2012
Page Author: NWS Webmaster
Disclaimer
Feedback
Privacy Notice
Credits